createdAt,value
2019-01-12T00:00:48.074Z,100953.39
2019-01-12T00:03:13.983Z,100957.02
2019-01-12T00:05:39.893Z,100947.98
2019-01-12T00:08:05.762Z,100946.02
2019-01-12T00:10:31.669Z,100932.90
2019-01-12T00:12:57.585Z,100937.02
2019-01-12T00:15:23.440Z,100947.05
2019-01-12T00:17:49.340Z,100942.51
2019-01-12T00:20:15.237Z,100945.53
2019-01-12T00:22:41.153Z,100935.55
2019-01-12T00:25:07.023Z,100938.91
2019-01-12T00:27:32.891Z,100939.22
2019-01-12T00:29:58.839Z,100937.31
2019-01-12T00:32:24.752Z,100931.74
2019-01-12T00:34:50.639Z,100932.53
2019-01-12T00:37:16.537Z,100944.92
2019-01-12T00:39:42.451Z,100933.98
2019-01-12T00:42:08.321Z,100930.26
2019-01-12T00:44:34.224Z,100930.52
2019-01-12T00:47:00.138Z,100930.83
2019-01-12T00:49:26.007Z,100934.63
2019-01-12T00:51:51.896Z,100938.27
2019-01-12T00:54:17.833Z,100934.20
2019-01-12T00:56:43.732Z,100938.60
2019-01-12T00:59:09.682Z,100939.67
2019-01-12T01:01:35.588Z,100937.80
2019-01-12T01:04:01.529Z,100934.24
2019-01-12T01:06:27.410Z,100936.91
2019-01-12T01:08:53.307Z,100941.35
2019-01-12T01:11:19.200Z,100946.84
2019-01-12T01:13:45.062Z,100948.44
2019-01-12T01:16:10.984Z,100943.48
2019-01-12T01:18:36.842Z,100949.95
2019-01-12T01:21:02.748Z,100955.97
2019-01-12T01:23:28.645Z,100957.38
2019-01-12T01:25:54.553Z,100951.72
2019-01-12T01:28:20.425Z,100955.36
2019-01-12T01:30:46.339Z,100950.20
2019-01-12T01:33:12.223Z,100958.67
2019-01-12T01:35:38.103Z,100965.50
2019-01-12T01:38:04.008Z,100955.84
2019-01-12T01:40:29.949Z,100963.47
2019-01-12T01:42:55.805Z,100955.74
2019-01-12T01:45:21.669Z,100963.36
2019-01-12T01:47:47.543Z,100950.36
2019-01-12T01:50:55.089Z,100957.80
2019-01-12T01:53:21.041Z,100959.14
2019-01-12T01:55:46.923Z,100958.70
2019-01-12T01:58:12.857Z,100958.99
2019-01-12T02:00:38.771Z,100957.62
2019-01-12T02:03:04.641Z,100966.90
2019-01-12T02:05:30.559Z,100966.32
2019-01-12T02:07:56.441Z,100964.86
2019-01-12T02:10:22.344Z,100955.52
2019-01-12T02:12:48.213Z,100954.36
2019-01-12T02:15:55.736Z,100960.83
2019-01-12T02:18:21.668Z,100955.55
2019-01-12T02:20:47.556Z,100953.13
2019-01-12T02:23:13.438Z,100953.66
2019-01-12T02:25:39.345Z,100950.34
2019-01-12T02:28:05.226Z,100948.01
2019-01-12T02:30:31.154Z,100952.66
2019-01-12T02:32:57.057Z,100959.12
2019-01-12T02:35:22.919Z,100955.84
2019-01-12T02:37:48.877Z,100951.45
2019-01-12T02:40:14.736Z,100952.13
2019-01-12T02:42:40.646Z,100947.74
2019-01-12T02:48:06.931Z,100942.81
2019-01-12T02:50:32.840Z,100939.52
2019-01-12T02:52:58.704Z,100933.34
2019-01-12T02:55:24.572Z,100943.03
2019-01-12T02:57:50.492Z,100935.65
2019-01-12T03:00:16.362Z,100933.88
2019-01-12T03:02:42.237Z,100933.50
2019-01-12T03:05:08.150Z,100931.80
2019-01-12T03:07:34.025Z,100931.28
2019-01-12T03:09:59.914Z,100934.66
2019-01-12T03:12:25.763Z,100933.44
2019-01-12T03:14:51.669Z,100931.48
2019-01-12T03:17:17.539Z,100938.99
2019-01-12T03:19:43.438Z,100926.74
2019-01-12T03:22:09.309Z,100922.09
2019-01-12T03:24:35.214Z,100927.78
2019-01-12T03:27:01.104Z,100923.83
2019-01-12T03:29:27.012Z,100920.49
2019-01-12T03:31:53.117Z,100915.17
2019-01-12T03:37:08.145Z,100911.88
2019-01-12T03:39:34.021Z,100907.82
2019-01-12T03:41:59.913Z,100906.70
2019-01-12T03:44:25.786Z,100913.48
2019-01-12T03:46:51.738Z,100909.56
2019-01-12T03:49:17.551Z,100905.89
2019-01-12T03:51:43.463Z,100910.41
2019-01-12T03:54:09.332Z,100900.88
2019-01-12T03:56:35.240Z,100899.27
2019-01-12T03:59:01.129Z,100904.40
2019-01-12T04:01:27.061Z,100899.73
2019-01-12T04:03:52.974Z,100895.48
2019-01-12T04:06:18.948Z,100897.65
2019-01-12T04:08:44.848Z,100894.97
2019-01-12T04:11:10.723Z,100890.39
2019-01-12T04:13:36.624Z,100897.61
2019-01-12T04:16:02.502Z,100882.27
2019-01-12T04:18:28.397Z,100887.51
2019-01-12T04:20:54.286Z,100889.18
2019-01-12T04:23:20.185Z,100877.86
2019-01-12T04:25:46.046Z,100871.30
2019-01-12T04:28:11.960Z,100879.11
2019-01-12T04:30:37.905Z,100889.31
2019-01-12T04:33:03.817Z,100883.42
2019-01-12T04:35:29.724Z,100884.05
2019-01-12T04:37:55.592Z,100881.41
2019-01-12T04:40:21.500Z,100876.33
2019-01-12T04:42:47.377Z,100875.16
2019-01-12T04:48:06.546Z,100884.45
2019-01-12T04:50:32.441Z,100869.67
2019-01-12T04:52:58.371Z,100879.86
2019-01-12T04:55:44.149Z,100865.47
2019-01-12T04:58:10.082Z,100864.44
2019-01-12T05:00:36.021Z,100870.17
2019-01-12T05:03:01.898Z,100863.20
2019-01-12T05:05:27.757Z,100866.69
2019-01-12T05:07:53.662Z,100853.16
2019-01-12T05:10:19.524Z,100859.94
2019-01-12T05:12:45.436Z,100850.02
2019-01-12T05:18:24.689Z,100852.46
2019-01-12T05:20:50.636Z,100848.00
2019-01-12T05:23:16.527Z,100845.58
2019-01-12T05:25:48.944Z,100850.58
2019-01-12T05:28:10.309Z,100851.09
2019-01-12T05:30:36.211Z,100845.88
2019-01-12T05:33:02.093Z,100857.13
2019-01-12T05:35:27.996Z,100858.45
2019-01-12T05:37:53.860Z,100855.41
2019-01-12T05:40:19.767Z,100855.23
2019-01-12T05:42:45.634Z,100845.64
2019-01-12T05:45:53.184Z,100851.85
2019-01-12T05:48:19.094Z,100842.00
2019-01-12T05:50:45.023Z,100853.49
2019-01-12T05:53:10.888Z,100849.73
2019-01-12T05:55:36.817Z,100848.23
2019-01-12T05:58:02.680Z,100848.65
2019-01-12T06:00:28.622Z,100845.64
2019-01-12T06:02:54.532Z,100850.33
2019-01-12T06:05:20.400Z,100866.41
2019-01-12T06:07:46.302Z,100870.47
2019-01-12T06:10:12.284Z,100872.35
2019-01-12T06:12:38.175Z,100857.95
2019-01-12T06:18:17.315Z,100851.77
2019-01-12T06:20:43.190Z,100858.88
2019-01-12T06:23:09.055Z,100861.30
2019-01-12T06:25:34.955Z,100849.77
2019-01-12T06:28:00.837Z,100852.48
2019-01-12T06:30:26.737Z,100859.56
2019-01-12T06:32:52.619Z,100857.08
2019-01-12T06:35:18.531Z,100849.47
2019-01-12T06:37:44.414Z,100852.51
2019-01-12T06:40:51.949Z,100845.19
2019-01-12T06:43:17.870Z,100861.88
2019-01-12T06:45:43.769Z,100853.25
2019-01-12T06:48:09.639Z,100852.39
2019-01-12T06:50:35.541Z,100844.31
2019-01-12T06:53:01.421Z,100845.92
2019-01-12T06:55:27.303Z,100851.11
2019-01-12T06:57:53.198Z,100853.57
2019-01-12T07:00:19.074Z,100850.27
2019-01-12T07:02:44.984Z,100851.94
2019-01-12T07:05:10.965Z,100855.41
2019-01-12T07:07:36.861Z,100857.02
2019-01-12T07:13:16.402Z,100838.48
2019-01-12T07:15:42.275Z,100841.63
2019-01-12T07:18:08.994Z,100856.27
2019-01-12T07:20:36.012Z,100841.70
2019-01-12T07:23:01.933Z,100843.10
2019-01-12T07:25:27.804Z,100829.94
2019-01-12T07:27:53.711Z,100832.23
2019-01-12T07:31:01.258Z,100833.99
2019-01-12T07:33:27.176Z,100837.47
2019-01-12T07:35:53.073Z,100843.39
2019-01-12T07:38:18.952Z,100838.97
2019-01-12T07:40:44.870Z,100832.89
2019-01-12T07:43:10.754Z,100833.54
2019-01-12T07:45:36.618Z,100843.48
2019-01-12T07:48:02.543Z,100829.41
2019-01-12T07:50:28.408Z,100831.24
2019-01-12T07:52:54.319Z,100834.20
2019-01-12T07:55:20.210Z,100832.02
2019-01-12T07:57:46.083Z,100829.70
2019-01-12T08:00:53.617Z,100822.22
2019-01-12T08:03:19.565Z,100823.81
2019-01-12T08:05:45.473Z,100817.70
2019-01-12T08:08:11.397Z,100818.01
2019-01-12T08:10:37.294Z,100810.38
2019-01-12T08:13:03.161Z,100826.23
2019-01-12T08:15:29.076Z,100818.20
2019-01-12T08:17:54.942Z,100810.36
2019-01-12T08:20:20.847Z,100807.02
2019-01-12T08:22:46.767Z,100809.99
2019-01-12T08:25:12.684Z,100804.35
2019-01-12T08:27:38.549Z,100816.48
2019-01-12T08:30:24.342Z,100802.41
2019-01-12T08:32:50.248Z,100793.33
2019-01-12T08:35:16.123Z,100793.79
2019-01-12T08:37:42.038Z,100784.05
2019-01-12T08:40:49.574Z,100787.70
2019-01-12T08:43:15.480Z,100777.70
2019-01-12T08:45:41.410Z,100796.20
2019-01-12T08:48:07.271Z,100780.91
2019-01-12T08:50:33.143Z,100783.63
2019-01-12T08:52:59.165Z,100778.20
2019-01-12T08:55:25.081Z,100770.38
2019-01-12T08:57:51.005Z,100765.42
2019-01-12T09:00:58.533Z,100762.37
2019-01-12T09:03:24.411Z,100766.56
2019-01-12T09:05:50.341Z,100765.82
2019-01-12T09:08:16.221Z,100754.51
2019-01-12T09:10:42.099Z,100751.89
2019-01-12T09:13:08.019Z,100755.28
2019-01-12T09:15:33.903Z,100758.27
2019-01-12T09:17:59.813Z,100743.20
2019-01-12T09:20:25.722Z,100755.36
2019-01-12T09:22:51.589Z,100745.72
2019-01-12T09:25:17.513Z,100737.81
2019-01-12T09:27:43.385Z,100739.83
2019-01-12T09:30:50.903Z,100739.35
2019-01-12T09:33:16.890Z,100739.24
2019-01-12T09:35:42.787Z,100735.67
2019-01-12T09:38:08.663Z,100739.44
2019-01-12T09:40:34.570Z,100740.77
2019-01-12T09:43:00.498Z,100725.48
2019-01-12T09:45:26.378Z,100728.95
2019-01-12T09:47:52.288Z,100736.91
2019-01-12T09:50:59.792Z,100727.82
2019-01-12T09:53:25.742Z,100733.80
2019-01-12T09:55:51.604Z,100714.77
2019-01-12T09:58:17.547Z,100688.63
2019-01-12T10:00:43.460Z,100691.78
2019-01-12T10:03:09.390Z,100690.63
2019-01-12T10:05:35.252Z,100690.02
2019-01-12T10:08:01.180Z,100683.41
2019-01-12T10:10:27.098Z,100678.27
2019-01-12T10:12:53.012Z,100680.87
2019-01-12T10:15:18.954Z,100660.16
2019-01-12T10:17:44.849Z,100655.57
2019-01-12T10:20:52.406Z,100650.67
2019-01-12T10:23:18.318Z,100639.68
2019-01-12T10:25:44.236Z,100633.89
2019-01-12T10:28:10.146Z,100627.73
2019-01-12T10:30:36.066Z,100620.56
2019-01-12T10:33:01.976Z,100625.14
2019-01-12T10:35:27.904Z,100609.48
2019-01-12T10:37:53.773Z,100620.11
2019-01-12T10:40:20.011Z,100620.00
2019-01-12T10:46:00.117Z,100611.47
2019-01-12T10:48:25.996Z,100595.27
2019-01-12T10:50:51.916Z,100596.90
2019-01-12T10:53:17.813Z,100600.59
2019-01-12T10:55:43.737Z,100593.11
2019-01-12T10:58:09.648Z,100581.38
2019-01-12T11:00:35.525Z,100571.08
2019-01-12T11:03:01.434Z,100573.89
2019-01-12T11:05:27.312Z,100566.58
2019-01-12T11:07:53.215Z,100561.23
2019-01-12T11:10:19.088Z,100560.78
2019-01-12T11:12:45.013Z,100556.78
2019-01-12T11:15:30.776Z,100557.70
2019-01-12T11:17:56.683Z,100543.14
2019-01-12T11:20:22.591Z,100528.11
2019-01-12T11:22:48.473Z,100526.55
2019-01-12T11:25:55.998Z,100523.48
2019-01-12T11:28:21.963Z,100518.86
2019-01-12T11:30:47.812Z,100510.20
2019-01-12T11:33:13.739Z,100504.22
2019-01-12T11:35:39.666Z,100498.73
2019-01-12T11:38:05.586Z,100488.69
2019-01-12T11:40:31.503Z,100481.47
2019-01-12T11:42:57.557Z,100481.40
2019-01-12T11:45:23.462Z,100480.75
2019-01-12T11:51:23.332Z,100456.12
2019-01-12T11:53:49.281Z,100447.03
2019-01-12T11:56:15.174Z,100435.47
2019-01-12T11:58:41.099Z,100429.17
2019-01-12T12:01:07.030Z,100421.78
2019-01-12T12:03:32.937Z,100436.81
2019-01-12T12:05:58.863Z,100415.70
2019-01-12T12:08:24.751Z,100411.14
2019-01-12T12:10:50.616Z,100399.44
2019-01-12T12:13:16.536Z,100402.72
2019-01-12T12:15:42.404Z,100401.70
2019-01-12T12:18:08.325Z,100394.51
2019-01-12T12:20:34.301Z,100378.80
2019-01-12T12:23:00.201Z,100378.69
2019-01-12T12:25:26.153Z,100371.24
2019-01-12T12:27:52.029Z,100361.44
2019-01-12T12:30:59.553Z,100357.33
2019-01-12T12:33:25.541Z,100343.70
2019-01-12T12:35:51.422Z,100333.00
2019-01-12T12:38:17.325Z,100328.83
2019-01-12T12:40:43.200Z,100314.92
2019-01-12T12:43:09.064Z,100312.14
2019-01-12T12:45:35.006Z,100309.39
2019-01-12T12:48:00.854Z,100302.36
2019-01-12T12:50:26.731Z,100290.66
2019-01-12T12:52:52.646Z,100288.33
2019-01-12T12:55:18.515Z,100272.49
2019-01-12T12:57:44.430Z,100265.83
2019-01-12T13:00:51.988Z,100263.15
2019-01-12T13:03:17.902Z,100253.66
2019-01-12T13:05:43.793Z,100250.38
2019-01-12T13:08:09.702Z,100249.58
2019-01-12T13:10:35.578Z,100237.08
2019-01-12T13:13:01.489Z,100228.63
2019-01-12T13:15:27.351Z,100231.84
2019-01-12T13:17:53.259Z,100220.16
2019-01-12T13:20:20.589Z,100216.61
2019-01-12T13:22:46.994Z,100222.66
2019-01-12T13:28:07.342Z,100205.45
2019-01-12T13:30:33.211Z,100201.65
2019-01-12T13:32:59.093Z,100201.20
2019-01-12T13:35:25.017Z,100200.30
2019-01-12T13:37:50.879Z,100203.49
2019-01-12T13:40:58.410Z,100183.74
2019-01-12T13:43:24.355Z,100186.17
2019-01-12T13:45:50.239Z,100171.60
2019-01-12T13:48:16.118Z,100169.79
2019-01-12T13:50:42.047Z,100173.58
2019-01-12T13:53:07.918Z,100167.73
2019-01-12T13:55:33.827Z,100166.31
2019-01-12T13:57:59.699Z,100197.20
2019-01-12T14:01:07.232Z,100153.31
2019-01-12T14:03:33.156Z,100140.50
2019-01-12T14:05:59.071Z,100148.84
2019-01-12T14:08:24.945Z,100137.81
2019-01-12T14:10:50.850Z,100144.67
2019-01-12T14:13:16.737Z,100135.63
2019-01-12T14:15:42.644Z,100127.86
2019-01-12T14:18:08.571Z,100125.39
2019-01-12T14:20:34.670Z,100125.39
2019-01-12T14:23:07.339Z,100116.45
2019-01-12T14:25:33.248Z,100122.23
2019-01-12T14:27:59.133Z,100131.13
2019-01-12T14:30:25.052Z,100123.50
2019-01-12T14:32:50.930Z,100115.13
2019-01-12T14:35:58.465Z,100108.77
2019-01-12T14:38:24.384Z,100113.23
2019-01-12T14:40:50.282Z,100118.63
2019-01-12T14:43:16.166Z,100128.00
2019-01-12T14:45:42.071Z,100102.63
2019-01-12T14:48:07.953Z,100088.37
2019-01-12T14:50:33.877Z,100088.43
2019-01-12T14:52:59.742Z,100086.23
2019-01-12T14:55:25.729Z,100083.66
2019-01-12T14:57:51.636Z,100074.74
2019-01-12T15:00:59.193Z,100077.42
2019-01-12T15:03:25.103Z,100070.63
2019-01-12T15:05:51.000Z,100069.95
2019-01-12T15:08:16.907Z,100077.87
2019-01-12T15:10:42.818Z,100065.55
2019-01-12T15:13:08.756Z,100055.56
2019-01-12T15:15:34.642Z,100066.66
2019-01-12T15:18:00.599Z,100065.36
2019-01-12T15:23:39.869Z,100064.13
2019-01-12T15:26:05.760Z,100051.09
2019-01-12T15:28:31.674Z,100058.58
2019-01-12T15:30:57.580Z,100055.91
2019-01-12T15:33:23.456Z,100067.17
2019-01-12T15:35:49.505Z,100048.00
2019-01-12T15:38:15.393Z,100051.05
2019-01-12T15:40:41.297Z,100045.48
2019-01-12T15:43:07.160Z,100049.84
2019-01-12T15:45:33.072Z,100043.89
2019-01-12T15:47:58.950Z,100034.90
2019-01-12T15:51:06.506Z,100029.98
2019-01-12T15:53:32.466Z,100030.29
2019-01-12T15:55:58.343Z,100029.80
2019-01-12T15:58:24.216Z,100034.77
2019-01-12T16:00:50.114Z,100027.52
2019-01-12T16:03:16.038Z,100030.78
2019-01-12T16:05:41.957Z,100017.45
2019-01-12T16:08:07.846Z,100018.28
2019-01-12T16:10:33.763Z,100024.70
2019-01-12T16:12:59.624Z,100006.51
2019-01-12T16:15:25.554Z,100020.30
2019-01-12T16:17:51.415Z,100017.03
2019-01-12T16:20:58.976Z,100015.03
2019-01-12T16:23:24.889Z,100013.18
2019-01-12T16:25:50.806Z,100019.73
2019-01-12T16:28:23.005Z,100015.11
2019-01-12T16:30:44.506Z,100011.28
2019-01-12T16:33:10.424Z,100004.24
2019-01-12T16:35:36.328Z,100010.45
2019-01-12T16:38:02.253Z,100016.11
2019-01-12T16:40:28.116Z,100007.55
2019-01-12T16:42:54.028Z,100013.75
2019-01-12T16:45:19.895Z,100005.30
2019-01-12T16:47:45.810Z,100002.30
2019-01-12T16:50:11.677Z,100001.20
2019-01-12T16:52:37.575Z,99996.48
2019-01-12T16:58:17.410Z,99986.02
2019-01-12T17:00:43.314Z,99988.24
2019-01-12T17:03:09.267Z,99979.25
2019-01-12T17:05:35.161Z,99982.56
2019-01-12T17:08:01.078Z,99986.12
2019-01-12T17:13:14.424Z,99972.30
2019-01-12T17:15:40.330Z,99973.77
2019-01-12T17:18:06.204Z,99981.91
2019-01-12T17:20:32.113Z,99981.66
2019-01-12T17:22:58.096Z,99982.08
2019-01-12T17:25:24.004Z,99988.73
2019-01-12T17:27:49.925Z,99994.48
2019-01-12T17:30:57.477Z,99992.16
2019-01-12T17:33:23.360Z,99995.42
2019-01-12T17:35:49.281Z,99993.52
2019-01-12T17:38:15.142Z,99998.14
2019-01-12T17:40:41.076Z,99997.37
2019-01-12T17:43:06.946Z,99994.05
2019-01-12T17:45:32.824Z,99986.80
2019-01-12T17:47:58.741Z,99994.41
2019-01-12T17:50:24.821Z,99988.51
2019-01-12T17:52:50.740Z,99991.91
2019-01-12T17:58:30.313Z,99974.92
2019-01-12T18:00:56.284Z,99987.50
2019-01-12T18:03:22.192Z,99968.70
2019-01-12T18:05:48.071Z,99978.20
2019-01-12T18:08:13.980Z,99965.38
2019-01-12T18:10:39.864Z,99964.16
2019-01-12T18:13:05.763Z,99960.45
2019-01-12T18:15:31.658Z,99959.84
2019-01-12T18:17:57.557Z,99953.95
2019-01-12T18:20:23.433Z,99957.83
2019-01-12T18:22:49.341Z,99958.94
2019-01-12T18:25:35.103Z,99958.84
2019-01-12T18:28:01.026Z,99960.16
2019-01-12T18:30:26.945Z,99962.07
2019-01-12T18:32:52.851Z,99967.73
2019-01-12T18:35:18.805Z,99969.09
2019-01-12T18:37:44.805Z,99963.51
2019-01-12T18:40:30.559Z,99969.19
2019-01-12T18:42:56.515Z,99969.09
2019-01-12T18:45:22.432Z,99965.99
2019-01-12T18:47:48.317Z,99959.19
2019-01-12T18:50:34.130Z,99955.31
2019-01-12T18:53:00.066Z,99969.19
2019-01-12T18:55:25.939Z,99966.25
2019-01-12T18:57:51.845Z,99953.39
2019-01-12T19:00:37.614Z,99955.22
2019-01-12T19:03:03.562Z,99955.31
2019-01-12T19:05:29.428Z,99957.41
2019-01-12T19:07:55.324Z,99954.99
2019-01-12T19:10:21.214Z,99943.14
2019-01-12T19:12:47.125Z,99941.31
2019-01-12T19:15:32.923Z,99937.52
2019-01-12T19:17:58.846Z,99945.24
2019-01-12T19:20:24.727Z,99938.00
2019-01-12T19:22:50.747Z,99938.56
2019-01-12T19:25:16.600Z,99930.27
2019-01-12T19:27:42.525Z,99939.70
2019-01-12T19:33:21.983Z,99922.23
2019-01-12T19:35:47.898Z,99931.92
2019-01-12T19:38:13.769Z,99936.09
2019-01-12T19:40:39.695Z,99927.77
2019-01-12T19:43:05.575Z,99923.75
2019-01-12T19:45:31.485Z,99923.44
2019-01-12T19:47:57.367Z,99917.05
2019-01-12T19:50:23.378Z,99922.39
2019-01-12T19:52:49.249Z,99920.58
2019-01-12T19:55:15.175Z,99917.27
2019-01-12T19:57:41.052Z,99919.88
2019-01-12T20:00:48.596Z,99918.67
2019-01-12T20:03:14.617Z,99921.53
2019-01-12T20:05:40.549Z,99914.66
2019-01-12T20:08:06.418Z,99914.44
2019-01-12T20:10:32.331Z,99916.27
2019-01-12T20:12:58.248Z,99916.65
2019-01-12T20:15:44.024Z,99909.66
2019-01-12T20:18:09.942Z,99914.05
2019-01-12T20:20:35.854Z,99915.75
2019-01-12T20:23:01.734Z,99916.68
2019-01-12T20:25:27.658Z,99910.52
2019-01-12T20:27:53.646Z,99911.05
2019-01-12T20:31:01.194Z,99909.00
2019-01-12T20:37:07.947Z,99919.50
2019-01-12T20:40:13.667Z,99900.45
2019-01-12T20:43:19.340Z,99903.13
2019-01-12T20:46:25.175Z,99904.34
2019-01-12T20:49:32.762Z,99910.30
2019-01-12T20:52:38.450Z,99900.23
2019-01-12T20:55:44.147Z,99901.97
2019-01-12T20:58:51.734Z,99895.34
2019-01-12T21:04:58.613Z,99892.08
2019-01-12T21:11:05.015Z,99893.13
2019-01-12T21:14:12.592Z,99872.27
2019-01-12T21:16:38.605Z,99884.59
2019-01-12T21:19:04.535Z,99884.59
2019-01-12T21:21:30.445Z,99887.20
2019-01-12T21:23:56.329Z,99880.27
2019-01-12T21:26:22.249Z,99884.19
2019-01-12T21:28:48.142Z,99876.44
2019-01-12T21:31:14.059Z,99883.02
2019-01-12T21:33:39.914Z,99885.07
2019-01-12T21:36:05.844Z,99866.48
2019-01-12T21:38:31.721Z,99869.75
2019-01-12T21:40:57.608Z,99864.81
2019-01-12T21:43:23.535Z,99868.90
2019-01-12T21:45:49.504Z,99870.63
2019-01-12T21:48:15.384Z,99883.67
2019-01-12T21:50:41.264Z,99879.38
2019-01-12T21:53:07.164Z,99877.41
2019-01-12T21:55:33.057Z,99875.22
2019-01-12T21:57:58.975Z,99872.86
2019-01-12T22:00:24.874Z,99880.66
2019-01-12T22:02:50.798Z,99880.01
2019-01-12T22:05:16.672Z,99862.94
2019-01-12T22:07:42.583Z,99867.21
2019-01-12T22:10:28.368Z,99858.86
2019-01-12T22:12:54.307Z,99859.05
2019-01-12T22:15:20.230Z,99862.92
2019-01-12T22:17:46.102Z,99863.73
2019-01-12T22:20:53.641Z,99863.36
2019-01-12T22:23:19.594Z,99862.20
2019-01-12T22:25:45.475Z,99873.89
2019-01-12T22:28:11.423Z,99859.52
2019-01-12T22:30:37.349Z,99857.73
2019-01-12T22:33:03.226Z,99855.19
2019-01-12T22:35:29.127Z,99853.03
2019-01-12T22:37:55.028Z,99840.20
2019-01-12T22:40:20.944Z,99846.92
2019-01-12T22:42:46.808Z,99850.89
2019-01-12T22:45:12.743Z,99839.74
2019-01-12T22:47:38.627Z,99842.73
2019-01-12T22:50:46.171Z,99840.13
2019-01-12T22:53:12.074Z,99841.77
2019-01-12T22:55:37.995Z,99838.56
2019-01-12T22:58:03.863Z,99834.53
2019-01-12T23:01:11.454Z,99848.23
2019-01-12T23:03:59.118Z,99825.66
2019-01-12T23:06:25.072Z,99814.33
2019-01-12T23:08:50.963Z,99817.56
2019-01-12T23:11:16.853Z,99827.15
2019-01-12T23:13:42.746Z,99835.28
2019-01-12T23:16:08.621Z,99819.10
2019-01-12T23:18:34.538Z,99831.90
2019-01-12T23:21:00.424Z,99830.80
2019-01-12T23:23:26.332Z,99826.95
2019-01-12T23:25:52.219Z,99820.11
2019-01-12T23:28:18.111Z,99818.61
2019-01-12T23:30:43.992Z,99821.91
2019-01-12T23:33:09.914Z,99827.89
2019-01-12T23:35:35.859Z,99833.33
2019-01-12T23:38:01.772Z,99814.66
2019-01-12T23:40:27.673Z,99825.88
2019-01-12T23:42:53.570Z,99821.91
2019-01-12T23:45:19.468Z,99816.58
2019-01-12T23:48:05.228Z,99818.95
2019-01-12T23:50:31.210Z,99814.44
2019-01-12T23:52:57.080Z,99810.34
2019-01-12T23:55:22.955Z,99799.48
2019-01-12T23:57:48.852Z,99811.69
